createdAt,value
2018-06-05T00:01:32.547Z,24.20
2018-06-05T00:04:01.678Z,24.10
2018-06-05T00:06:30.348Z,24.10
2018-06-05T00:08:59.028Z,24.10
2018-06-05T00:11:27.716Z,24.10
2018-06-05T00:13:56.416Z,24.00
2018-06-05T00:16:25.072Z,24.00
2018-06-05T00:18:53.724Z,24.00
2018-06-05T00:21:22.356Z,23.80
2018-06-05T00:23:50.997Z,23.80
2018-06-05T00:26:19.680Z,23.70
2018-06-05T00:28:48.328Z,23.80
2018-06-05T00:31:16.990Z,23.70
2018-06-05T00:33:45.636Z,23.60
2018-06-05T00:36:14.296Z,23.50
2018-06-05T00:38:42.941Z,23.40
2018-06-05T00:41:11.614Z,23.10
2018-06-05T00:43:40.306Z,23.10
2018-06-05T00:46:09.681Z,23.20
2018-06-05T00:48:38.317Z,23.20
2018-06-05T00:51:18.120Z,23.00
2018-06-05T00:53:46.800Z,23.00
2018-06-05T00:56:15.656Z,22.90
2018-06-05T00:58:44.334Z,22.90
2018-06-05T01:01:12.959Z,22.80
2018-06-05T01:03:41.653Z,22.70
2018-06-05T01:06:10.311Z,22.60
2018-06-05T01:08:39.386Z,22.70
2018-06-05T01:11:08.116Z,22.70
2018-06-05T01:13:36.775Z,22.80
2018-06-05T01:16:05.478Z,22.80
2018-06-05T01:18:34.152Z,22.80
2018-06-05T01:21:02.816Z,23.00
2018-06-05T01:23:31.491Z,23.00
2018-06-05T01:26:00.176Z,23.10
2018-06-05T01:28:28.875Z,23.20
2018-06-05T01:30:57.562Z,23.20
2018-06-05T01:33:26.233Z,23.30
2018-06-05T01:35:54.916Z,23.40
2018-06-05T01:38:23.612Z,23.40
2018-06-05T01:40:52.242Z,23.30
2018-06-05T01:43:20.869Z,23.10
2018-06-05T01:45:49.577Z,23.00
2018-06-05T01:48:18.236Z,23.00
2018-06-05T01:50:46.923Z,23.00
2018-06-05T01:53:15.558Z,23.00
2018-06-05T01:55:44.232Z,23.00
2018-06-05T01:58:13.541Z,23.10
2018-06-05T02:00:42.249Z,23.10
2018-06-05T02:03:11.633Z,23.20
2018-06-05T02:05:40.319Z,23.20
2018-06-05T02:08:09.012Z,23.30
2018-06-05T02:10:37.790Z,23.30
2018-06-05T02:13:06.425Z,23.20
2018-06-05T02:15:35.093Z,23.10
2018-06-05T02:18:03.842Z,23.20
2018-06-05T02:20:32.528Z,23.20
2018-06-05T02:23:01.748Z,23.30
2018-06-05T02:25:31.465Z,23.30
2018-06-05T02:28:00.165Z,23.20
2018-06-05T02:30:28.873Z,23.10
2018-06-05T02:32:57.702Z,23.10
2018-06-05T02:35:26.407Z,23.10
2018-06-05T02:37:55.760Z,23.10
2018-06-05T02:40:24.407Z,23.10
2018-06-05T02:42:53.153Z,23.10
2018-06-05T02:45:21.809Z,22.90
2018-06-05T02:47:50.484Z,22.60
2018-06-05T02:52:48.045Z,22.40
2018-06-05T02:55:16.721Z,22.40
2018-06-05T02:57:45.517Z,22.50
2018-06-05T03:00:14.175Z,22.50
2018-06-05T03:02:42.800Z,22.70
2018-06-05T03:05:11.472Z,22.70
2018-06-05T03:07:40.168Z,22.60
2018-06-05T03:10:09.280Z,22.70
2018-06-05T03:12:37.985Z,22.70
2018-06-05T03:15:06.649Z,22.80
2018-06-05T03:17:35.418Z,22.70
2018-06-05T03:20:04.242Z,22.50
2018-06-05T03:22:32.900Z,22.40
2018-06-05T03:25:01.581Z,22.40
2018-06-05T03:27:30.228Z,22.50
2018-06-05T03:29:58.861Z,22.70
2018-06-05T03:34:55.841Z,22.90
2018-06-05T03:37:24.501Z,23.00
2018-06-05T03:39:53.120Z,23.10
2018-06-05T03:42:21.772Z,23.10
2018-06-05T03:44:50.492Z,23.20
2018-06-05T03:47:19.200Z,23.20
2018-06-05T03:49:47.875Z,23.20
2018-06-05T03:52:16.534Z,23.30
2018-06-05T03:54:45.200Z,23.30
2018-06-05T03:57:13.899Z,23.30
2018-06-05T03:59:42.592Z,23.20
2018-06-05T04:02:15.866Z,23.20
2018-06-05T04:04:44.594Z,23.00
2018-06-05T04:07:13.305Z,23.00
2018-06-05T04:09:42.784Z,23.10
2018-06-05T04:14:42.698Z,23.10
2018-06-05T04:17:11.361Z,23.20
2018-06-05T04:19:40.116Z,23.30
2018-06-05T04:22:08.797Z,23.30
2018-06-05T04:24:38.345Z,23.30
2018-06-05T04:27:07.277Z,23.40
2018-06-05T04:29:35.927Z,23.50
2018-06-05T04:32:04.747Z,23.50
2018-06-05T04:34:33.447Z,23.50
2018-06-05T04:37:02.162Z,23.50
2018-06-05T04:39:30.785Z,23.50
2018-06-05T04:41:59.734Z,23.50
2018-06-05T04:44:28.482Z,23.50
2018-06-05T04:46:57.108Z,23.50
2018-06-05T04:49:25.760Z,23.50
2018-06-05T04:51:54.440Z,23.50
2018-06-05T04:54:23.100Z,23.50
2018-06-05T04:56:51.728Z,23.40
2018-06-05T05:01:48.848Z,23.10
2018-06-05T05:04:17.488Z,23.10
2018-06-05T05:06:46.924Z,23.20
2018-06-05T05:09:15.682Z,23.40
2018-06-05T05:11:44.367Z,23.50
2018-06-05T05:16:41.349Z,23.70
2018-06-05T05:19:11.147Z,23.80
2018-06-05T05:21:39.815Z,23.90
2018-06-05T05:24:08.540Z,24.00
2018-06-05T05:26:37.485Z,24.00
2018-06-05T05:29:06.137Z,24.10
2018-06-05T05:31:34.766Z,24.20
2018-06-05T05:34:03.501Z,24.20
2018-06-05T05:36:32.440Z,24.30
2018-06-05T05:43:58.362Z,24.30
2018-06-05T05:46:27.018Z,24.40
2018-06-05T05:48:55.765Z,24.50
2018-06-05T05:51:25.139Z,24.50
2018-06-05T05:53:53.818Z,24.60
2018-06-05T05:56:22.585Z,24.60
2018-06-05T05:58:51.217Z,24.70
2018-06-05T06:01:19.924Z,24.80
2018-06-05T06:03:48.573Z,24.80
2018-06-05T06:06:17.256Z,24.90
2018-06-05T06:08:46.017Z,24.90
2018-06-05T06:11:14.693Z,24.80
2018-06-05T06:13:43.478Z,24.90
2018-06-05T06:16:12.262Z,24.90
2018-06-05T06:18:40.972Z,25.00
2018-06-05T06:21:09.755Z,24.60
2018-06-05T06:23:38.422Z,24.80
2018-06-05T06:28:35.473Z,25.00
2018-06-05T06:33:32.473Z,24.90
2018-06-05T06:36:01.924Z,25.00
2018-06-05T06:38:32.456Z,25.10
2018-06-05T06:41:01.850Z,25.20
2018-06-05T06:43:30.484Z,25.20
2018-06-05T06:50:55.777Z,25.40
2018-06-05T06:53:24.561Z,25.50
2018-06-05T06:55:53.304Z,25.50
2018-06-05T06:58:22.151Z,25.60
2018-06-05T07:00:50.809Z,25.60
2018-06-05T07:03:20.197Z,25.60
2018-06-05T07:05:48.879Z,25.50
2018-06-05T07:08:17.560Z,25.50
2018-06-05T07:10:46.742Z,25.40
2018-06-05T07:13:15.408Z,25.40
2018-06-05T07:15:44.345Z,25.50
2018-06-05T07:18:13.060Z,25.60
2018-06-05T07:20:41.752Z,25.60
2018-06-05T07:23:11.015Z,25.70
2018-06-05T07:25:39.700Z,25.80
2018-06-05T07:30:36.743Z,25.80
2018-06-05T07:35:33.817Z,25.90
2018-06-05T07:38:02.478Z,25.80
2018-06-05T07:40:31.213Z,25.90
2018-06-05T07:42:59.965Z,25.70
2018-06-05T07:47:57.041Z,25.80
2018-06-05T07:50:26.376Z,25.90
2018-06-05T07:52:55.284Z,26.00
2018-06-05T07:55:24.115Z,26.10
2018-06-05T07:57:52.826Z,26.20
2018-06-05T08:00:21.650Z,26.30
2018-06-05T08:02:50.337Z,26.10
2018-06-05T08:05:19.102Z,26.10
2018-06-05T08:07:47.754Z,26.10
2018-06-05T08:10:16.454Z,26.20
2018-06-05T08:12:45.952Z,26.10
2018-06-05T08:17:43.066Z,26.10
2018-06-05T08:20:11.836Z,26.20
2018-06-05T08:22:57.577Z,26.10
2018-06-05T08:25:26.363Z,26.00
2018-06-05T08:27:55.060Z,26.10
2018-06-05T08:30:23.858Z,26.20
2018-06-05T08:32:52.578Z,26.20
2018-06-05T08:35:22.145Z,26.10
2018-06-05T08:37:50.976Z,26.10
2018-06-05T08:40:19.635Z,26.30
2018-06-05T08:42:48.456Z,26.30
2018-06-05T08:45:17.159Z,26.50
2018-06-05T08:47:45.869Z,26.70
2018-06-05T08:50:14.545Z,26.60
2018-06-05T08:52:43.203Z,26.70
2018-06-05T08:55:11.962Z,26.80
2018-06-05T08:57:40.690Z,26.70
2018-06-05T09:00:09.385Z,26.80
2018-06-05T09:02:38.104Z,26.70
2018-06-05T09:05:06.850Z,26.80
2018-06-05T09:07:35.591Z,26.90
2018-06-05T09:10:04.381Z,26.90
2018-06-05T09:12:33.199Z,26.90
2018-06-05T09:15:01.926Z,26.90
2018-06-05T09:17:30.610Z,27.00
2018-06-05T09:20:00.105Z,27.10
2018-06-05T09:22:28.809Z,27.20
2018-06-05T09:24:57.590Z,27.30
2018-06-05T09:29:54.760Z,27.30
2018-06-05T09:32:23.534Z,27.40
2018-06-05T09:34:52.872Z,27.50
2018-06-05T09:37:21.602Z,27.60
2018-06-05T09:39:50.425Z,27.50
2018-06-05T09:42:19.112Z,27.50
2018-06-05T09:44:47.813Z,27.40
2018-06-05T09:47:16.481Z,27.40
2018-06-05T09:49:45.170Z,27.40
2018-06-05T09:52:14.647Z,27.50
2018-06-05T09:54:43.393Z,27.60
2018-06-05T09:57:12.088Z,27.50
2018-06-05T09:59:40.880Z,27.70
2018-06-05T10:02:09.547Z,27.60
2018-06-05T10:04:38.292Z,27.80
2018-06-05T10:07:07.045Z,27.90
2018-06-05T10:09:35.688Z,28.00
2018-06-05T10:12:04.431Z,28.00
2018-06-05T10:14:33.149Z,28.10
2018-06-05T10:17:01.814Z,28.10
2018-06-05T10:19:30.550Z,28.30
2018-06-05T10:21:59.211Z,28.30
2018-06-05T10:24:27.918Z,28.40
2018-06-05T10:26:56.879Z,28.50
2018-06-05T10:29:25.560Z,28.70
2018-06-05T10:31:54.226Z,28.80
2018-06-05T10:36:51.275Z,28.70
2018-06-05T10:41:48.280Z,28.70
2018-06-05T10:44:17.124Z,28.70
2018-06-05T10:46:45.752Z,28.80
2018-06-05T10:49:14.631Z,28.90
2018-06-05T10:51:43.566Z,28.80
2018-06-05T10:54:13.100Z,29.00
2018-06-05T10:56:41.766Z,29.00
2018-06-05T10:59:10.468Z,29.10
2018-06-05T11:01:39.138Z,29.10
2018-06-05T11:04:08.343Z,29.20
2018-06-05T11:06:37.033Z,29.40
2018-06-05T11:09:08.116Z,29.50
2018-06-05T11:11:36.794Z,29.60
2018-06-05T11:14:05.563Z,29.60
2018-06-05T11:16:34.312Z,29.40
2018-06-05T11:19:03.004Z,29.40
2018-06-05T11:21:31.728Z,29.60
2018-06-05T11:24:01.168Z,29.60
2018-06-05T11:26:29.937Z,29.70
2018-06-05T11:28:58.603Z,29.60
2018-06-05T11:31:27.394Z,29.50
2018-06-05T11:33:56.759Z,29.40
2018-06-05T11:36:25.420Z,29.20
2018-06-05T11:38:54.814Z,29.30
2018-06-05T11:41:23.631Z,29.50
2018-06-05T11:43:53.054Z,29.70
2018-06-05T11:46:22.056Z,29.70
2018-06-05T11:48:50.742Z,29.90
2018-06-05T11:51:20.101Z,29.90
2018-06-05T11:53:48.832Z,30.00
2018-06-05T11:56:17.656Z,30.10
2018-06-05T11:58:46.303Z,30.30
2018-06-05T12:01:15.087Z,30.50
2018-06-05T12:03:43.781Z,30.50
2018-06-05T12:06:13.483Z,30.60
2018-06-05T12:08:42.144Z,30.60
2018-06-05T12:11:10.822Z,30.80
2018-06-05T12:13:40.040Z,31.00
2018-06-05T12:16:09.325Z,31.10
2018-06-05T12:18:40.065Z,31.10
2018-06-05T12:21:09.123Z,31.10
2018-06-05T12:23:38.439Z,31.00
2018-06-05T12:26:07.322Z,30.70
2018-06-05T12:28:35.992Z,30.60
2018-06-05T12:31:05.333Z,30.60
2018-06-05T12:33:34.084Z,30.50
2018-06-05T12:36:02.813Z,30.50
2018-06-05T12:38:31.568Z,30.70
2018-06-05T12:41:00.962Z,30.50
2018-06-05T12:43:29.576Z,30.50
2018-06-05T12:45:58.226Z,30.50
2018-06-05T12:48:27.125Z,30.60
2018-06-05T12:50:55.867Z,30.60
2018-06-05T12:53:24.577Z,30.70
2018-06-05T12:55:53.445Z,30.90
2018-06-05T12:58:22.219Z,30.90
2018-06-05T13:00:50.953Z,30.90
2018-06-05T13:03:20.306Z,30.90
2018-06-05T13:05:49.280Z,30.90
2018-06-05T13:08:18.260Z,30.80
2018-06-05T13:10:46.960Z,30.60
2018-06-05T13:15:45.045Z,30.70
2018-06-05T13:20:42.141Z,31.00
2018-06-05T13:23:10.820Z,31.00
2018-06-05T13:25:39.527Z,31.00
2018-06-05T13:28:08.220Z,31.20
2018-06-05T13:30:36.892Z,31.40
2018-06-05T13:33:05.593Z,31.40
2018-06-05T13:35:34.301Z,31.30
2018-06-05T13:38:03.734Z,31.30
2018-06-05T13:40:32.531Z,31.10
2018-06-05T13:43:01.640Z,31.30
2018-06-05T13:45:30.444Z,31.20
2018-06-05T13:47:59.733Z,31.20
2018-06-05T13:50:29.231Z,31.30
2018-06-05T13:52:58.313Z,31.40
2018-06-05T13:57:55.269Z,30.90
2018-06-05T14:00:23.993Z,31.00
2018-06-05T14:02:52.723Z,31.10
2018-06-05T14:05:21.393Z,31.00
2018-06-05T14:07:50.200Z,31.20
2018-06-05T14:10:18.853Z,31.40
2018-06-05T14:12:47.636Z,31.50
2018-06-05T14:15:16.321Z,31.60
2018-06-05T14:17:45.409Z,31.70
2018-06-05T14:20:14.084Z,31.40
2018-06-05T14:22:42.828Z,31.50
2018-06-05T14:25:11.533Z,31.90
2018-06-05T14:27:40.232Z,31.90
2018-06-05T14:32:37.304Z,32.30
2018-06-05T14:35:06.081Z,32.30
2018-06-05T14:37:34.807Z,32.10
2018-06-05T14:40:04.646Z,32.00
2018-06-05T14:42:33.372Z,32.30
2018-06-05T14:45:02.090Z,31.90
2018-06-05T14:47:30.863Z,31.90
2018-06-05T14:49:59.714Z,32.10
2018-06-05T14:52:29.280Z,32.40
2018-06-05T14:54:58.131Z,32.60
2018-06-05T14:57:26.845Z,32.50
2018-06-05T14:59:56.052Z,32.20
2018-06-05T15:02:24.737Z,32.30
2018-06-05T15:04:53.370Z,32.50
2018-06-05T15:07:22.231Z,32.40
2018-06-05T15:09:51.015Z,32.20
2018-06-05T15:12:20.482Z,32.10
2018-06-05T15:14:50.267Z,32.00
2018-06-05T15:17:24.327Z,31.80
2018-06-05T15:19:57.539Z,31.70
2018-06-05T15:22:27.532Z,31.50
2018-06-05T15:24:56.226Z,31.40
2018-06-05T15:29:53.944Z,30.90
2018-06-05T15:32:22.622Z,30.70
2018-06-05T15:34:51.364Z,30.70
2018-06-05T15:39:48.349Z,30.50
2018-06-05T15:42:17.056Z,30.50
2018-06-05T15:44:45.697Z,30.60
2018-06-05T15:47:15.153Z,30.20
2018-06-05T15:49:43.841Z,30.10
2018-06-05T15:52:12.580Z,30.10
2018-06-05T15:57:09.572Z,30.00
2018-06-05T15:59:38.250Z,30.00
2018-06-05T16:02:06.973Z,30.10
2018-06-05T16:04:36.677Z,30.10
2018-06-05T16:07:05.553Z,30.20
2018-06-05T16:09:34.273Z,30.30
2018-06-05T16:12:02.972Z,30.40
2018-06-05T16:14:31.611Z,30.30
2018-06-05T16:17:00.389Z,30.40
2018-06-05T16:19:29.056Z,30.30
2018-06-05T16:24:26.756Z,29.80
2018-06-05T16:26:55.425Z,29.50
2018-06-05T16:31:52.471Z,29.10
2018-06-05T16:34:21.270Z,28.90
2018-06-05T16:36:50.671Z,28.90
2018-06-05T16:39:24.622Z,28.90
2018-06-05T16:41:53.286Z,29.10
2018-06-05T16:44:21.995Z,29.30
2018-06-05T16:46:50.656Z,29.40
2018-06-05T16:51:47.729Z,29.70
2018-06-05T16:54:16.410Z,29.80
2018-06-05T16:56:45.590Z,29.90
2018-06-05T16:59:14.289Z,30.00
2018-06-05T17:01:43.010Z,30.10
2018-06-05T17:04:12.381Z,30.10
2018-06-05T17:06:41.065Z,30.20
2018-06-05T17:09:09.804Z,30.30
2018-06-05T17:11:38.503Z,30.30
2018-06-05T17:14:07.192Z,30.50
2018-06-05T17:16:35.822Z,30.50
2018-06-05T17:19:04.560Z,30.60
2018-06-05T17:21:33.252Z,30.60
2018-06-05T17:24:01.968Z,30.60
2018-06-05T17:28:59.765Z,30.70
2018-06-05T17:31:28.441Z,30.70
2018-06-05T17:33:57.124Z,30.60
2018-06-05T17:36:25.797Z,30.60
2018-06-05T17:38:54.480Z,30.50
2018-06-05T17:41:23.107Z,30.40
2018-06-05T17:43:51.863Z,30.40
2018-06-05T17:46:20.672Z,30.40
2018-06-05T17:48:53.997Z,30.30
2018-06-05T17:51:22.701Z,30.30
2018-06-05T17:53:52.455Z,30.30
2018-06-05T17:56:21.160Z,30.20
2018-06-05T17:58:49.828Z,30.10
2018-06-05T18:01:18.548Z,30.10
2018-06-05T18:03:47.244Z,30.00
2018-06-05T18:06:15.960Z,29.90
2018-06-05T18:08:44.679Z,29.90
2018-06-05T18:11:13.754Z,29.80
2018-06-05T18:13:42.421Z,29.70
2018-06-05T18:16:11.145Z,29.70
2018-06-05T18:21:08.264Z,29.60
2018-06-05T18:23:36.973Z,29.50
2018-06-05T18:26:05.783Z,29.50
2018-06-05T18:28:34.500Z,29.40
2018-06-05T18:31:03.220Z,29.40
2018-06-05T18:33:31.942Z,29.30
2018-06-05T18:36:00.776Z,29.30
2018-06-05T18:38:29.469Z,29.20
2018-06-05T18:40:58.644Z,29.20
2018-06-05T18:43:27.428Z,29.20
2018-06-05T18:45:56.177Z,29.10
2018-06-05T18:48:24.941Z,29.10
2018-06-05T18:50:53.581Z,29.10
2018-06-05T18:55:50.652Z,28.90
2018-06-05T18:58:19.930Z,28.90
2018-06-05T19:00:48.615Z,28.90
2018-06-05T19:03:17.317Z,28.80
2018-06-05T19:08:14.480Z,28.80
2018-06-05T19:10:43.154Z,28.70
2018-06-05T19:13:12.432Z,28.60
2018-06-05T19:15:42.149Z,28.60
2018-06-05T19:18:10.864Z,28.60
2018-06-05T19:20:39.686Z,28.50
2018-06-05T19:23:08.490Z,28.50
2018-06-05T19:25:37.194Z,28.40
2018-06-05T19:28:06.218Z,28.40
2018-06-05T19:30:35.003Z,28.40
2018-06-05T19:33:03.821Z,28.40
2018-06-05T19:38:01.781Z,28.30
2018-06-05T19:40:30.445Z,28.30
2018-06-05T19:42:59.908Z,28.20
2018-06-05T19:45:28.622Z,28.20
2018-06-05T19:47:57.498Z,28.10
2018-06-05T19:50:26.214Z,28.10
2018-06-05T19:52:54.990Z,28.10
2018-06-05T19:55:24.525Z,28.10
2018-06-05T19:57:53.426Z,28.00
2018-06-05T20:00:22.278Z,28.00
2018-06-05T20:02:51.035Z,28.00
2018-06-05T20:05:19.826Z,28.00
2018-06-05T20:10:17.441Z,27.90
2018-06-05T20:12:46.526Z,27.90
2018-06-05T20:15:15.292Z,27.80
2018-06-05T20:17:44.035Z,27.70
2018-06-05T20:20:12.830Z,27.70
2018-06-05T20:22:41.500Z,27.70
2018-06-05T20:25:10.200Z,27.60
2018-06-05T20:27:38.909Z,27.50
2018-06-05T20:30:07.675Z,27.60
2018-06-05T20:32:36.358Z,27.40
2018-06-05T20:35:05.088Z,27.40
2018-06-05T20:37:33.761Z,27.30
2018-06-05T20:40:02.931Z,27.10
2018-06-05T20:42:31.612Z,27.00
2018-06-05T20:45:00.349Z,26.90
2018-06-05T20:47:29.156Z,26.80
2018-06-05T20:49:57.841Z,26.90
2018-06-05T20:52:26.562Z,26.70
2018-06-05T20:54:55.319Z,26.80
2018-06-05T20:57:23.988Z,26.70
2018-06-05T20:59:52.734Z,26.70
2018-06-05T21:02:21.425Z,26.80
2018-06-05T21:04:50.518Z,26.80
2018-06-05T21:07:19.248Z,26.90
2018-06-05T21:09:47.997Z,26.90
2018-06-05T21:12:16.769Z,26.90
2018-06-05T21:14:45.491Z,26.90
2018-06-05T21:17:14.226Z,26.90
2018-06-05T21:19:43.008Z,26.70
2018-06-05T21:22:11.670Z,26.70
2018-06-05T21:24:40.437Z,26.60
2018-06-05T21:27:09.149Z,26.60
2018-06-05T21:34:34.847Z,26.30
2018-06-05T21:37:03.773Z,26.20
2018-06-05T21:39:33.004Z,26.10
2018-06-05T21:42:01.733Z,26.00
2018-06-05T21:44:30.433Z,26.00
2018-06-05T21:46:59.113Z,25.60
2018-06-05T21:49:27.866Z,25.60
2018-06-05T21:51:56.628Z,25.60
2018-06-05T21:54:25.401Z,25.60
2018-06-05T21:56:54.122Z,25.40
2018-06-05T21:59:22.883Z,25.40
2018-06-05T22:01:52.167Z,25.30
2018-06-05T22:04:20.974Z,25.30
2018-06-05T22:09:18.788Z,25.20
2018-06-05T22:11:47.524Z,25.20
2018-06-05T22:14:16.267Z,25.20
2018-06-05T22:16:45.010Z,25.20
2018-06-05T22:19:13.736Z,25.20
2018-06-05T22:21:42.480Z,25.30
2018-06-05T22:24:11.280Z,25.40
2018-06-05T22:26:40.133Z,25.40
2018-06-05T22:29:08.910Z,25.40
2018-06-05T22:31:37.719Z,25.40
2018-06-05T22:34:06.709Z,25.50
2018-06-05T22:36:35.445Z,25.50
2018-06-05T22:39:05.416Z,25.10
2018-06-05T22:41:34.181Z,25.00
2018-06-05T22:44:02.959Z,25.20
2018-06-05T22:46:31.722Z,25.20
2018-06-05T22:53:57.140Z,25.00
2018-06-05T22:56:25.822Z,25.10
2018-06-05T22:58:55.313Z,25.20
2018-06-05T23:01:24.093Z,25.20
2018-06-05T23:03:52.796Z,25.20
2018-06-05T23:06:21.750Z,25.00
2018-06-05T23:11:19.497Z,25.20
2018-06-05T23:13:48.136Z,25.10
2018-06-05T23:16:16.813Z,25.20
2018-06-05T23:18:45.535Z,25.00
2018-06-05T23:21:14.241Z,24.90
2018-06-05T23:23:42.960Z,24.80
2018-06-05T23:26:11.646Z,24.60
2018-06-05T23:28:41.075Z,24.80
2018-06-05T23:31:09.724Z,24.60
2018-06-05T23:33:41.266Z,24.60
2018-06-05T23:36:09.937Z,24.50
2018-06-05T23:38:38.666Z,24.50
2018-06-05T23:41:07.334Z,24.60
2018-06-05T23:46:04.749Z,24.50
2018-06-05T23:48:33.465Z,24.70
2018-06-05T23:51:02.143Z,24.80
2018-06-05T23:53:31.471Z,24.80
2018-06-05T23:56:00.149Z,24.80
2018-06-05T23:58:28.924Z,24.90
